sensor_id;sensor_type;location;lat;lon;timestamp;P1;durP1;ratioP1;P2;durP2;ratioP2
173;SDS011;75;48.784;9.364;2023-06-14T00:00:21;11.83;;;7.47;;
173;SDS011;75;48.784;9.364;2023-06-14T00:02:47;12.17;;;7.23;;
173;SDS011;75;48.784;9.364;2023-06-14T00:05:13;15.00;;;7.30;;
173;SDS011;75;48.784;9.364;2023-06-14T00:07:40;10.43;;;6.80;;
173;SDS011;75;48.784;9.364;2023-06-14T00:10:11;10.70;;;7.37;;
173;SDS011;75;48.784;9.364;2023-06-14T00:12:37;12.67;;;7.33;;
173;SDS011;75;48.784;9.364;2023-06-14T00:15:04;10.47;;;6.90;;
173;SDS011;75;48.784;9.364;2023-06-14T00:17:30;9.50;;;6.93;;
173;SDS011;75;48.784;9.364;2023-06-14T00:19:59;9.13;;;6.80;;
173;SDS011;75;48.784;9.364;2023-06-14T00:22:25;15.73;;;7.07;;
173;SDS011;75;48.784;9.364;2023-06-14T00:24:53;12.27;;;7.20;;
173;SDS011;75;48.784;9.364;2023-06-14T00:27:19;10.30;;;6.90;;
173;SDS011;75;48.784;9.364;2023-06-14T00:29:45;10.20;;;7.30;;
173;SDS011;75;48.784;9.364;2023-06-14T00:32:11;9.03;;;7.37;;
173;SDS011;75;48.784;9.364;2023-06-14T00:34:37;10.33;;;7.40;;
173;SDS011;75;48.784;9.364;2023-06-14T00:37:03;8.93;;;7.17;;
173;SDS011;75;48.784;9.364;2023-06-14T00:39:29;13.50;;;7.03;;
173;SDS011;75;48.784;9.364;2023-06-14T00:41:55;14.70;;;6.87;;
173;SDS011;75;48.784;9.364;2023-06-14T00:44:22;11.83;;;7.40;;
173;SDS011;75;48.784;9.364;2023-06-14T00:46:48;13.60;;;8.33;;
173;SDS011;75;48.784;9.364;2023-06-14T00:49:15;10.97;;;7.50;;
173;SDS011;75;48.784;9.364;2023-06-14T00:51:41;10.70;;;7.40;;
173;SDS011;75;48.784;9.364;2023-06-14T00:54:07;10.50;;;7.20;;
173;SDS011;75;48.784;9.364;2023-06-14T00:56:35;9.93;;;7.13;;
173;SDS011;75;48.784;9.364;2023-06-14T00:59:02;11.10;;;8.10;;
173;SDS011;75;48.784;9.364;2023-06-14T01:01:28;9.40;;;7.07;;
173;SDS011;75;48.784;9.364;2023-06-14T01:03:57;10.17;;;7.07;;
173;SDS011;75;48.784;9.364;2023-06-14T01:09:14;10.70;;;7.30;;
173;SDS011;75;48.784;9.364;2023-06-14T01:11:45;8.23;;;6.50;;
173;SDS011;75;48.784;9.364;2023-06-14T01:14:13;11.10;;;7.33;;
173;SDS011;75;48.784;9.364;2023-06-14T01:16:40;10.90;;;7.37;;
173;SDS011;75;48.784;9.364;2023-06-14T01:19:07;13.03;;;8.27;;
173;SDS011;75;48.784;9.364;2023-06-14T01:21:37;16.83;;;9.40;;
173;SDS011;75;48.784;9.364;2023-06-14T01:24:06;17.23;;;10.70;;
173;SDS011;75;48.784;9.364;2023-06-14T01:26:33;18.00;;;9.90;;
173;SDS011;75;48.784;9.364;2023-06-14T01:29:00;25.13;;;11.10;;
173;SDS011;75;48.784;9.364;2023-06-14T01:31:26;17.40;;;10.13;;
173;SDS011;75;48.784;9.364;2023-06-14T01:33:52;15.60;;;9.20;;
173;SDS011;75;48.784;9.364;2023-06-14T01:36:19;20.07;;;9.57;;
173;SDS011;75;48.784;9.364;2023-06-14T01:38:45;14.40;;;9.07;;
173;SDS011;75;48.784;9.364;2023-06-14T01:41:14;11.60;;;9.00;;
173;SDS011;75;48.784;9.364;2023-06-14T01:43:41;14.03;;;9.40;;
173;SDS011;75;48.784;9.364;2023-06-14T01:46:07;15.70;;;9.67;;
173;SDS011;75;48.784;9.364;2023-06-14T01:48:34;16.83;;;9.33;;
173;SDS011;75;48.784;9.364;2023-06-14T01:51:00;15.30;;;9.40;;
173;SDS011;75;48.784;9.364;2023-06-14T01:53:26;14.83;;;10.20;;
173;SDS011;75;48.784;9.364;2023-06-14T01:55:52;16.03;;;9.70;;
173;SDS011;75;48.784;9.364;2023-06-14T01:58:19;15.90;;;9.40;;
173;SDS011;75;48.784;9.364;2023-06-14T02:00:46;13.67;;;9.23;;
173;SDS011;75;48.784;9.364;2023-06-14T02:03:12;20.50;;;10.77;;
173;SDS011;75;48.784;9.364;2023-06-14T02:05:38;16.93;;;10.23;;
173;SDS011;75;48.784;9.364;2023-06-14T02:08:05;16.93;;;9.63;;
173;SDS011;75;48.784;9.364;2023-06-14T02:10:31;15.10;;;9.77;;
173;SDS011;75;48.784;9.364;2023-06-14T02:12:57;13.73;;;9.00;;
173;SDS011;75;48.784;9.364;2023-06-14T02:15:23;12.07;;;8.70;;
173;SDS011;75;48.784;9.364;2023-06-14T02:17:49;12.40;;;8.83;;
173;SDS011;75;48.784;9.364;2023-06-14T02:20:15;14.37;;;8.30;;
173;SDS011;75;48.784;9.364;2023-06-14T02:22:41;13.57;;;8.73;;
173;SDS011;75;48.784;9.364;2023-06-14T02:25:07;10.73;;;7.90;;
173;SDS011;75;48.784;9.364;2023-06-14T02:27:34;14.60;;;8.40;;
173;SDS011;75;48.784;9.364;2023-06-14T02:30:00;12.50;;;8.17;;
173;SDS011;75;48.784;9.364;2023-06-14T02:32:26;11.90;;;8.47;;
173;SDS011;75;48.784;9.364;2023-06-14T02:34:52;11.37;;;8.00;;
173;SDS011;75;48.784;9.364;2023-06-14T02:37:18;11.00;;;8.33;;
173;SDS011;75;48.784;9.364;2023-06-14T02:39:44;11.97;;;8.37;;
173;SDS011;75;48.784;9.364;2023-06-14T02:42:10;12.70;;;8.70;;
173;SDS011;75;48.784;9.364;2023-06-14T02:44:37;12.73;;;8.67;;
173;SDS011;75;48.784;9.364;2023-06-14T02:47:03;10.27;;;7.90;;
173;SDS011;75;48.784;9.364;2023-06-14T02:49:29;13.27;;;8.67;;
173;SDS011;75;48.784;9.364;2023-06-14T02:51:55;13.93;;;8.13;;
173;SDS011;75;48.784;9.364;2023-06-14T02:54:22;12.63;;;8.50;;
173;SDS011;75;48.784;9.364;2023-06-14T02:56:48;11.93;;;8.30;;
173;SDS011;75;48.784;9.364;2023-06-14T02:59:13;10.70;;;8.00;;
173;SDS011;75;48.784;9.364;2023-06-14T03:01:40;10.47;;;8.20;;
173;SDS011;75;48.784;9.364;2023-06-14T03:04:09;14.03;;;8.50;;
173;SDS011;75;48.784;9.364;2023-06-14T03:06:35;14.03;;;7.97;;
173;SDS011;75;48.784;9.364;2023-06-14T03:09:02;11.47;;;8.43;;
173;SDS011;75;48.784;9.364;2023-06-14T03:11:31;8.37;;;6.47;;
173;SDS011;75;48.784;9.364;2023-06-14T03:13:57;14.10;;;8.40;;
173;SDS011;75;48.784;9.364;2023-06-14T03:16:24;12.10;;;8.30;;
173;SDS011;75;48.784;9.364;2023-06-14T03:18:51;10.73;;;8.20;;
173;SDS011;75;48.784;9.364;2023-06-14T03:21:17;14.93;;;8.27;;
173;SDS011;75;48.784;9.364;2023-06-14T03:23:44;10.13;;;7.93;;
173;SDS011;75;48.784;9.364;2023-06-14T03:26:10;13.13;;;8.50;;
173;SDS011;75;48.784;9.364;2023-06-14T03:28:40;10.23;;;8.00;;
173;SDS011;75;48.784;9.364;2023-06-14T03:31:06;12.07;;;8.30;;
173;SDS011;75;48.784;9.364;2023-06-14T03:33:33;15.33;;;8.03;;
173;SDS011;75;48.784;9.364;2023-06-14T03:35:59;11.50;;;8.40;;
173;SDS011;75;48.784;9.364;2023-06-14T03:38:25;12.40;;;9.10;;
173;SDS011;75;48.784;9.364;2023-06-14T03:40:51;12.40;;;9.03;;
173;SDS011;75;48.784;9.364;2023-06-14T03:43:17;12.80;;;8.53;;
173;SDS011;75;48.784;9.364;2023-06-14T03:45:43;14.00;;;9.50;;
173;SDS011;75;48.784;9.364;2023-06-14T03:48:09;13.83;;;8.43;;
173;SDS011;75;48.784;9.364;2023-06-14T03:50:35;14.50;;;9.27;;
173;SDS011;75;48.784;9.364;2023-06-14T03:53:03;13.03;;;8.33;;
173;SDS011;75;48.784;9.364;2023-06-14T03:55:29;13.33;;;8.60;;
173;SDS011;75;48.784;9.364;2023-06-14T03:57:56;11.30;;;7.90;;
173;SDS011;75;48.784;9.364;2023-06-14T04:00:22;29.10;;;15.47;;
173;SDS011;75;48.784;9.364;2023-06-14T04:02:48;70.10;;;32.33;;
173;SDS011;75;48.784;9.364;2023-06-14T04:05:14;228.60;;;104.03;;
173;SDS011;75;48.784;9.364;2023-06-14T04:07:42;284.90;;;143.13;;
173;SDS011;75;48.784;9.364;2023-06-14T04:10:10;191.30;;;93.83;;
173;SDS011;75;48.784;9.364;2023-06-14T04:12:36;56.67;;;29.53;;
173;SDS011;75;48.784;9.364;2023-06-14T04:15:02;31.97;;;18.23;;
173;SDS011;75;48.784;9.364;2023-06-14T04:17:28;22.70;;;13.27;;
173;SDS011;75;48.784;9.364;2023-06-14T04:19:54;14.73;;;10.30;;
173;SDS011;75;48.784;9.364;2023-06-14T04:22:23;12.07;;;9.07;;
173;SDS011;75;48.784;9.364;2023-06-14T04:24:49;13.00;;;8.60;;
173;SDS011;75;48.784;9.364;2023-06-14T04:27:17;13.90;;;8.80;;
173;SDS011;75;48.784;9.364;2023-06-14T04:29:46;12.40;;;8.23;;
173;SDS011;75;48.784;9.364;2023-06-14T04:32:14;11.80;;;8.33;;
173;SDS011;75;48.784;9.364;2023-06-14T04:34:40;12.57;;;8.50;;
173;SDS011;75;48.784;9.364;2023-06-14T04:37:06;12.07;;;8.57;;
173;SDS011;75;48.784;9.364;2023-06-14T04:39:32;11.30;;;7.90;;
173;SDS011;75;48.784;9.364;2023-06-14T04:41:58;11.00;;;7.70;;
173;SDS011;75;48.784;9.364;2023-06-14T04:44:25;10.93;;;7.63;;
173;SDS011;75;48.784;9.364;2023-06-14T04:46:55;12.17;;;7.47;;
173;SDS011;75;48.784;9.364;2023-06-14T04:49:21;11.37;;;7.93;;
173;SDS011;75;48.784;9.364;2023-06-14T04:51:48;12.13;;;7.53;;
173;SDS011;75;48.784;9.364;2023-06-14T04:54:22;20.77;;;10.10;;
173;SDS011;75;48.784;9.364;2023-06-14T04:56:49;24.70;;;12.63;;
173;SDS011;75;48.784;9.364;2023-06-14T04:59:15;22.20;;;11.03;;
173;SDS011;75;48.784;9.364;2023-06-14T05:01:42;16.00;;;10.50;;
173;SDS011;75;48.784;9.364;2023-06-14T05:04:18;17.53;;;10.77;;
173;SDS011;75;48.784;9.364;2023-06-14T05:06:45;21.07;;;11.30;;
173;SDS011;75;48.784;9.364;2023-06-14T05:09:13;15.37;;;9.40;;
173;SDS011;75;48.784;9.364;2023-06-14T05:11:39;17.17;;;9.17;;
173;SDS011;75;48.784;9.364;2023-06-14T05:14:08;14.50;;;8.27;;
173;SDS011;75;48.784;9.364;2023-06-14T05:16:34;13.03;;;8.40;;
173;SDS011;75;48.784;9.364;2023-06-14T05:19:00;14.50;;;9.07;;
173;SDS011;75;48.784;9.364;2023-06-14T05:21:27;15.67;;;9.30;;
173;SDS011;75;48.784;9.364;2023-06-14T05:23:53;14.40;;;8.70;;
173;SDS011;75;48.784;9.364;2023-06-14T05:26:20;14.00;;;8.63;;
173;SDS011;75;48.784;9.364;2023-06-14T05:28:48;14.23;;;9.13;;
173;SDS011;75;48.784;9.364;2023-06-14T05:31:15;13.17;;;8.20;;
173;SDS011;75;48.784;9.364;2023-06-14T05:33:41;13.10;;;8.67;;
173;SDS011;75;48.784;9.364;2023-06-14T05:36:07;12.57;;;9.10;;
173;SDS011;75;48.784;9.364;2023-06-14T05:38:33;13.53;;;9.10;;
173;SDS011;75;48.784;9.364;2023-06-14T05:40:59;16.53;;;9.70;;
173;SDS011;75;48.784;9.364;2023-06-14T05:43:24;24.50;;;12.83;;
173;SDS011;75;48.784;9.364;2023-06-14T05:45:50;20.63;;;12.80;;
173;SDS011;75;48.784;9.364;2023-06-14T05:48:16;25.70;;;12.63;;
173;SDS011;75;48.784;9.364;2023-06-14T05:50:42;24.90;;;13.50;;
173;SDS011;75;48.784;9.364;2023-06-14T05:53:08;20.60;;;12.07;;
173;SDS011;75;48.784;9.364;2023-06-14T05:55:34;25.30;;;12.33;;
173;SDS011;75;48.784;9.364;2023-06-14T05:58:00;30.73;;;14.93;;
173;SDS011;75;48.784;9.364;2023-06-14T06:00:26;15.03;;;10.40;;
173;SDS011;75;48.784;9.364;2023-06-14T06:02:52;15.03;;;9.47;;
173;SDS011;75;48.784;9.364;2023-06-14T06:05:18;16.70;;;9.80;;
173;SDS011;75;48.784;9.364;2023-06-14T06:07:45;20.50;;;10.30;;
173;SDS011;75;48.784;9.364;2023-06-14T06:10:12;14.90;;;9.90;;
173;SDS011;75;48.784;9.364;2023-06-14T06:12:38;13.67;;;10.00;;
173;SDS011;75;48.784;9.364;2023-06-14T06:15:04;15.30;;;9.27;;
173;SDS011;75;48.784;9.364;2023-06-14T06:17:30;18.27;;;10.90;;
173;SDS011;75;48.784;9.364;2023-06-14T06:19:56;13.40;;;9.47;;
173;SDS011;75;48.784;9.364;2023-06-14T06:22:21;18.17;;;9.57;;
173;SDS011;75;48.784;9.364;2023-06-14T06:24:47;18.33;;;10.50;;
173;SDS011;75;48.784;9.364;2023-06-14T06:27:13;14.63;;;9.93;;
173;SDS011;75;48.784;9.364;2023-06-14T06:29:41;20.07;;;10.13;;
173;SDS011;75;48.784;9.364;2023-06-14T06:32:08;13.30;;;9.23;;
173;SDS011;75;48.784;9.364;2023-06-14T06:34:34;12.13;;;8.80;;
173;SDS011;75;48.784;9.364;2023-06-14T06:37:00;14.77;;;8.70;;
173;SDS011;75;48.784;9.364;2023-06-14T06:39:26;12.10;;;8.73;;
173;SDS011;75;48.784;9.364;2023-06-14T06:41:52;15.13;;;9.20;;
173;SDS011;75;48.784;9.364;2023-06-14T06:44:18;12.47;;;8.83;;
173;SDS011;75;48.784;9.364;2023-06-14T06:46:44;14.90;;;9.03;;
173;SDS011;75;48.784;9.364;2023-06-14T06:49:10;21.13;;;9.07;;
173;SDS011;75;48.784;9.364;2023-06-14T06:51:42;14.40;;;8.57;;
173;SDS011;75;48.784;9.364;2023-06-14T06:54:09;16.30;;;8.63;;
173;SDS011;75;48.784;9.364;2023-06-14T06:56:35;14.63;;;8.60;;
173;SDS011;75;48.784;9.364;2023-06-14T06:59:01;11.43;;;7.97;;
173;SDS011;75;48.784;9.364;2023-06-14T07:01:27;12.30;;;9.03;;
173;SDS011;75;48.784;9.364;2023-06-14T07:03:54;13.63;;;8.60;;
173;SDS011;75;48.784;9.364;2023-06-14T07:06:20;17.17;;;8.10;;
173;SDS011;75;48.784;9.364;2023-06-14T07:08:46;11.07;;;8.33;;
173;SDS011;75;48.784;9.364;2023-06-14T07:11:15;13.47;;;8.90;;
173;SDS011;75;48.784;9.364;2023-06-14T07:13:41;14.80;;;8.80;;
173;SDS011;75;48.784;9.364;2023-06-14T07:16:07;10.63;;;8.13;;
173;SDS011;75;48.784;9.364;2023-06-14T07:18:33;17.53;;;8.00;;
173;SDS011;75;48.784;9.364;2023-06-14T07:20:59;10.77;;;7.80;;
173;SDS011;75;48.784;9.364;2023-06-14T07:23:25;15.87;;;9.00;;
173;SDS011;75;48.784;9.364;2023-06-14T07:25:51;11.40;;;8.60;;
173;SDS011;75;48.784;9.364;2023-06-14T07:28:17;12.50;;;8.00;;
173;SDS011;75;48.784;9.364;2023-06-14T07:30:43;13.00;;;8.73;;
173;SDS011;75;48.784;9.364;2023-06-14T07:33:09;14.00;;;8.93;;
173;SDS011;75;48.784;9.364;2023-06-14T07:35:37;18.77;;;8.77;;
173;SDS011;75;48.784;9.364;2023-06-14T07:38:03;14.43;;;8.43;;
173;SDS011;75;48.784;9.364;2023-06-14T07:40:29;10.73;;;8.30;;
173;SDS011;75;48.784;9.364;2023-06-14T07:42:55;13.37;;;8.07;;
173;SDS011;75;48.784;9.364;2023-06-14T07:45:21;13.20;;;9.00;;
173;SDS011;75;48.784;9.364;2023-06-14T07:47:47;12.07;;;8.23;;
173;SDS011;75;48.784;9.364;2023-06-14T07:50:12;13.13;;;8.67;;
173;SDS011;75;48.784;9.364;2023-06-14T07:52:39;10.40;;;7.97;;
173;SDS011;75;48.784;9.364;2023-06-14T07:55:05;14.43;;;8.80;;
173;SDS011;75;48.784;9.364;2023-06-14T07:57:31;14.67;;;8.80;;
173;SDS011;75;48.784;9.364;2023-06-14T07:59:57;14.67;;;8.30;;
173;SDS011;75;48.784;9.364;2023-06-14T08:02:23;13.40;;;9.10;;
173;SDS011;75;48.784;9.364;2023-06-14T08:04:49;13.07;;;9.07;;
173;SDS011;75;48.784;9.364;2023-06-14T08:07:15;14.00;;;9.50;;
173;SDS011;75;48.784;9.364;2023-06-14T08:09:41;12.43;;;9.27;;
173;SDS011;75;48.784;9.364;2023-06-14T08:12:07;10.53;;;8.00;;
173;SDS011;75;48.784;9.364;2023-06-14T08:14:34;12.07;;;8.73;;
173;SDS011;75;48.784;9.364;2023-06-14T08:17:00;13.70;;;8.90;;
173;SDS011;75;48.784;9.364;2023-06-14T08:19:26;11.60;;;8.33;;
173;SDS011;75;48.784;9.364;2023-06-14T08:21:53;10.90;;;8.50;;
173;SDS011;75;48.784;9.364;2023-06-14T08:24:23;11.27;;;8.40;;
173;SDS011;75;48.784;9.364;2023-06-14T08:26:54;10.57;;;8.10;;
173;SDS011;75;48.784;9.364;2023-06-14T08:29:26;13.90;;;8.30;;
173;SDS011;75;48.784;9.364;2023-06-14T08:31:54;15.07;;;8.60;;
173;SDS011;75;48.784;9.364;2023-06-14T08:34:20;11.80;;;7.83;;
173;SDS011;75;48.784;9.364;2023-06-14T08:36:49;12.57;;;8.10;;
173;SDS011;75;48.784;9.364;2023-06-14T08:39:16;12.60;;;8.90;;
173;SDS011;75;48.784;9.364;2023-06-14T08:41:42;11.93;;;8.53;;
173;SDS011;75;48.784;9.364;2023-06-14T08:44:10;11.57;;;8.30;;
173;SDS011;75;48.784;9.364;2023-06-14T08:46:36;13.13;;;8.63;;
173;SDS011;75;48.784;9.364;2023-06-14T08:49:02;11.70;;;8.20;;
173;SDS011;75;48.784;9.364;2023-06-14T08:51:30;12.30;;;8.13;;
173;SDS011;75;48.784;9.364;2023-06-14T08:54:01;11.57;;;7.90;;
173;SDS011;75;48.784;9.364;2023-06-14T08:56:28;12.70;;;8.53;;
173;SDS011;75;48.784;9.364;2023-06-14T08:58:55;12.00;;;8.43;;
173;SDS011;75;48.784;9.364;2023-06-14T09:01:21;10.77;;;8.50;;
173;SDS011;75;48.784;9.364;2023-06-14T09:03:48;10.77;;;7.90;;
173;SDS011;75;48.784;9.364;2023-06-14T09:06:14;11.00;;;8.00;;
173;SDS011;75;48.784;9.364;2023-06-14T09:08:44;11.50;;;7.83;;
173;SDS011;75;48.784;9.364;2023-06-14T09:11:13;15.73;;;8.50;;
173;SDS011;75;48.784;9.364;2023-06-14T09:13:40;11.80;;;8.00;;
173;SDS011;75;48.784;9.364;2023-06-14T09:16:06;15.00;;;7.30;;
173;SDS011;75;48.784;9.364;2023-06-14T09:18:39;10.43;;;7.83;;
173;SDS011;75;48.784;9.364;2023-06-14T09:21:09;9.17;;;7.10;;
173;SDS011;75;48.784;9.364;2023-06-14T09:23:38;9.20;;;7.53;;
173;SDS011;75;48.784;9.364;2023-06-14T09:26:06;12.50;;;7.83;;
173;SDS011;75;48.784;9.364;2023-06-14T09:28:32;10.80;;;7.80;;
173;SDS011;75;48.784;9.364;2023-06-14T09:30:59;17.77;;;8.90;;
173;SDS011;75;48.784;9.364;2023-06-14T09:33:25;14.40;;;8.67;;
173;SDS011;75;48.784;9.364;2023-06-14T09:35:52;13.63;;;8.37;;
173;SDS011;75;48.784;9.364;2023-06-14T09:38:19;11.87;;;8.20;;
173;SDS011;75;48.784;9.364;2023-06-14T09:40:46;10.80;;;8.00;;
173;SDS011;75;48.784;9.364;2023-06-14T09:43:12;15.53;;;8.20;;
173;SDS011;75;48.784;9.364;2023-06-14T09:45:38;11.90;;;8.30;;
173;SDS011;75;48.784;9.364;2023-06-14T09:48:10;13.27;;;7.93;;
173;SDS011;75;48.784;9.364;2023-06-14T09:50:37;12.77;;;8.27;;
173;SDS011;75;48.784;9.364;2023-06-14T09:53:05;10.67;;;8.20;;
173;SDS011;75;48.784;9.364;2023-06-14T09:55:34;13.20;;;7.43;;
173;SDS011;75;48.784;9.364;2023-06-14T09:58:00;11.73;;;7.47;;
173;SDS011;75;48.784;9.364;2023-06-14T10:00:28;9.40;;;6.90;;
173;SDS011;75;48.784;9.364;2023-06-14T10:02:57;8.00;;;6.50;;
173;SDS011;75;48.784;9.364;2023-06-14T10:05:26;9.30;;;6.77;;
173;SDS011;75;48.784;9.364;2023-06-14T10:07:56;8.40;;;7.00;;
173;SDS011;75;48.784;9.364;2023-06-14T10:10:25;13.33;;;7.80;;
173;SDS011;75;48.784;9.364;2023-06-14T10:12:51;14.20;;;8.00;;
173;SDS011;75;48.784;9.364;2023-06-14T10:15:23;11.50;;;7.90;;
173;SDS011;75;48.784;9.364;2023-06-14T10:17:54;11.73;;;7.60;;
173;SDS011;75;48.784;9.364;2023-06-14T10:20:30;10.27;;;7.70;;
173;SDS011;75;48.784;9.364;2023-06-14T10:25:30;10.43;;;7.03;;
173;SDS011;75;48.784;9.364;2023-06-14T10:28:04;14.20;;;7.90;;
173;SDS011;75;48.784;9.364;2023-06-14T10:30:41;10.87;;;7.60;;
173;SDS011;75;48.784;9.364;2023-06-14T10:33:28;10.20;;;7.57;;
173;SDS011;75;48.784;9.364;2023-06-14T10:36:06;11.27;;;7.83;;
173;SDS011;75;48.784;9.364;2023-06-14T10:38:32;13.53;;;7.70;;
173;SDS011;75;48.784;9.364;2023-06-14T10:41:00;9.40;;;7.10;;
173;SDS011;75;48.784;9.364;2023-06-14T10:43:26;10.50;;;7.70;;
173;SDS011;75;48.784;9.364;2023-06-14T10:48:40;10.70;;;7.27;;
173;SDS011;75;48.784;9.364;2023-06-14T10:51:11;11.57;;;7.60;;
173;SDS011;75;48.784;9.364;2023-06-14T10:53:41;10.60;;;7.73;;
173;SDS011;75;48.784;9.364;2023-06-14T10:56:08;10.40;;;7.43;;
173;SDS011;75;48.784;9.364;2023-06-14T10:58:36;10.90;;;7.07;;
173;SDS011;75;48.784;9.364;2023-06-14T11:01:02;14.10;;;7.70;;
173;SDS011;75;48.784;9.364;2023-06-14T11:03:36;13.10;;;7.67;;
173;SDS011;75;48.784;9.364;2023-06-14T11:06:13;10.60;;;7.43;;
173;SDS011;75;48.784;9.364;2023-06-14T11:11:06;9.30;;;7.50;;
173;SDS011;75;48.784;9.364;2023-06-14T11:13:32;10.30;;;6.97;;
173;SDS011;75;48.784;9.364;2023-06-14T11:15:58;10.30;;;7.43;;
173;SDS011;75;48.784;9.364;2023-06-14T11:18:24;12.90;;;7.57;;
173;SDS011;75;48.784;9.364;2023-06-14T11:20:52;9.57;;;7.40;;
173;SDS011;75;48.784;9.364;2023-06-14T11:23:18;11.17;;;7.40;;
173;SDS011;75;48.784;9.364;2023-06-14T11:25:49;12.27;;;7.40;;
173;SDS011;75;48.784;9.364;2023-06-14T11:28:15;10.70;;;7.23;;
173;SDS011;75;48.784;9.364;2023-06-14T11:30:41;11.70;;;7.37;;
173;SDS011;75;48.784;9.364;2023-06-14T11:33:09;11.10;;;7.53;;
173;SDS011;75;48.784;9.364;2023-06-14T11:35:35;9.53;;;7.20;;
173;SDS011;75;48.784;9.364;2023-06-14T11:38:01;11.03;;;7.30;;
173;SDS011;75;48.784;9.364;2023-06-14T11:40:27;10.10;;;7.40;;
173;SDS011;75;48.784;9.364;2023-06-14T11:43:00;10.70;;;7.40;;
173;SDS011;75;48.784;9.364;2023-06-14T11:45:26;15.63;;;7.33;;
173;SDS011;75;48.784;9.364;2023-06-14T11:47:54;12.30;;;7.70;;
173;SDS011;75;48.784;9.364;2023-06-14T11:50:21;10.67;;;7.03;;
173;SDS011;75;48.784;9.364;2023-06-14T11:52:57;8.47;;;6.93;;
173;SDS011;75;48.784;9.364;2023-06-14T11:55:24;10.60;;;7.30;;
173;SDS011;75;48.784;9.364;2023-06-14T11:57:50;10.60;;;6.60;;
173;SDS011;75;48.784;9.364;2023-06-14T12:00:17;10.40;;;6.90;;
173;SDS011;75;48.784;9.364;2023-06-14T12:02:51;9.60;;;7.03;;
173;SDS011;75;48.784;9.364;2023-06-14T12:05:19;11.43;;;6.83;;
173;SDS011;75;48.784;9.364;2023-06-14T12:07:46;8.20;;;6.60;;
173;SDS011;75;48.784;9.364;2023-06-14T12:10:13;11.20;;;7.20;;
173;SDS011;75;48.784;9.364;2023-06-14T12:12:40;8.67;;;6.93;;
173;SDS011;75;48.784;9.364;2023-06-14T12:15:07;9.80;;;6.53;;
173;SDS011;75;48.784;9.364;2023-06-14T12:17:34;8.87;;;6.93;;
173;SDS011;75;48.784;9.364;2023-06-14T12:20:04;10.37;;;6.73;;
173;SDS011;75;48.784;9.364;2023-06-14T12:22:33;13.07;;;7.07;;
173;SDS011;75;48.784;9.364;2023-06-14T12:24:59;9.93;;;6.80;;
173;SDS011;75;48.784;9.364;2023-06-14T12:27:25;9.93;;;7.00;;
173;SDS011;75;48.784;9.364;2023-06-14T12:30:03;9.20;;;6.60;;
173;SDS011;75;48.784;9.364;2023-06-14T12:32:29;10.73;;;6.83;;
173;SDS011;75;48.784;9.364;2023-06-14T12:34:55;13.67;;;7.00;;
173;SDS011;75;48.784;9.364;2023-06-14T12:37:21;11.77;;;7.33;;
173;SDS011;75;48.784;9.364;2023-06-14T12:39:47;11.57;;;7.33;;
173;SDS011;75;48.784;9.364;2023-06-14T12:42:13;11.93;;;6.90;;
173;SDS011;75;48.784;9.364;2023-06-14T12:44:39;9.80;;;6.90;;
173;SDS011;75;48.784;9.364;2023-06-14T12:47:06;10.17;;;6.80;;
173;SDS011;75;48.784;9.364;2023-06-14T12:49:32;11.43;;;7.27;;
173;SDS011;75;48.784;9.364;2023-06-14T12:51:58;8.90;;;7.00;;
173;SDS011;75;48.784;9.364;2023-06-14T12:54:24;11.57;;;7.30;;
173;SDS011;75;48.784;9.364;2023-06-14T12:56:51;9.10;;;6.50;;
173;SDS011;75;48.784;9.364;2023-06-14T12:59:18;11.53;;;7.10;;
173;SDS011;75;48.784;9.364;2023-06-14T13:01:44;9.97;;;7.07;;
173;SDS011;75;48.784;9.364;2023-06-14T13:04:10;9.23;;;7.17;;
173;SDS011;75;48.784;9.364;2023-06-14T13:06:36;13.70;;;7.77;;
173;SDS011;75;48.784;9.364;2023-06-14T13:09:02;11.57;;;7.20;;
173;SDS011;75;48.784;9.364;2023-06-14T13:11:28;12.20;;;7.90;;
173;SDS011;75;48.784;9.364;2023-06-14T13:13:55;8.83;;;6.90;;
173;SDS011;75;48.784;9.364;2023-06-14T13:16:21;9.03;;;6.93;;
173;SDS011;75;48.784;9.364;2023-06-14T13:18:47;9.30;;;6.83;;
173;SDS011;75;48.784;9.364;2023-06-14T13:21:13;9.03;;;6.93;;
173;SDS011;75;48.784;9.364;2023-06-14T13:23:39;9.67;;;6.73;;
173;SDS011;75;48.784;9.364;2023-06-14T13:26:05;12.40;;;7.20;;
173;SDS011;75;48.784;9.364;2023-06-14T13:28:31;13.80;;;8.30;;
173;SDS011;75;48.784;9.364;2023-06-14T13:30:57;11.60;;;7.87;;
173;SDS011;75;48.784;9.364;2023-06-14T13:33:23;9.60;;;7.47;;
173;SDS011;75;48.784;9.364;2023-06-14T13:35:49;10.70;;;7.60;;
173;SDS011;75;48.784;9.364;2023-06-14T13:38:17;9.93;;;6.97;;
173;SDS011;75;48.784;9.364;2023-06-14T13:40:43;11.60;;;7.40;;
173;SDS011;75;48.784;9.364;2023-06-14T13:43:09;10.63;;;7.60;;
173;SDS011;75;48.784;9.364;2023-06-14T13:45:36;12.47;;;7.33;;
173;SDS011;75;48.784;9.364;2023-06-14T13:48:02;17.63;;;7.40;;
173;SDS011;75;48.784;9.364;2023-06-14T13:50:27;9.70;;;7.30;;
173;SDS011;75;48.784;9.364;2023-06-14T13:52:53;9.50;;;7.20;;
173;SDS011;75;48.784;9.364;2023-06-14T13:55:19;9.63;;;7.40;;
173;SDS011;75;48.784;9.364;2023-06-14T13:57:45;8.13;;;7.10;;
173;SDS011;75;48.784;9.364;2023-06-14T14:00:11;11.47;;;7.20;;
173;SDS011;75;48.784;9.364;2023-06-14T14:02:38;15.87;;;7.53;;
173;SDS011;75;48.784;9.364;2023-06-14T14:05:05;18.60;;;7.00;;
173;SDS011;75;48.784;9.364;2023-06-14T14:07:31;9.77;;;7.00;;
173;SDS011;75;48.784;9.364;2023-06-14T14:09:57;9.80;;;6.87;;
173;SDS011;75;48.784;9.364;2023-06-14T14:12:23;7.50;;;6.70;;
173;SDS011;75;48.784;9.364;2023-06-14T14:14:50;10.70;;;7.37;;
173;SDS011;75;48.784;9.364;2023-06-14T14:17:16;9.30;;;6.97;;
173;SDS011;75;48.784;9.364;2023-06-14T14:19:42;9.53;;;7.63;;
173;SDS011;75;48.784;9.364;2023-06-14T14:22:08;9.87;;;7.17;;
173;SDS011;75;48.784;9.364;2023-06-14T14:24:34;11.70;;;6.97;;
173;SDS011;75;48.784;9.364;2023-06-14T14:27:01;12.17;;;7.27;;
173;SDS011;75;48.784;9.364;2023-06-14T14:29:27;9.77;;;7.23;;
173;SDS011;75;48.784;9.364;2023-06-14T14:31:56;12.13;;;7.57;;
173;SDS011;75;48.784;9.364;2023-06-14T14:34:23;12.10;;;7.30;;
173;SDS011;75;48.784;9.364;2023-06-14T14:36:49;13.27;;;8.03;;
173;SDS011;75;48.784;9.364;2023-06-14T14:39:16;15.23;;;8.03;;
173;SDS011;75;48.784;9.364;2023-06-14T14:41:41;10.73;;;7.30;;
173;SDS011;75;48.784;9.364;2023-06-14T14:44:07;11.10;;;7.33;;
173;SDS011;75;48.784;9.364;2023-06-14T14:46:33;9.50;;;6.97;;
173;SDS011;75;48.784;9.364;2023-06-14T14:49:00;12.00;;;7.17;;
173;SDS011;75;48.784;9.364;2023-06-14T14:51:26;10.67;;;6.90;;
173;SDS011;75;48.784;9.364;2023-06-14T14:53:52;14.70;;;7.10;;
173;SDS011;75;48.784;9.364;2023-06-14T14:56:18;13.63;;;7.90;;
173;SDS011;75;48.784;9.364;2023-06-14T14:58:44;11.70;;;7.40;;
173;SDS011;75;48.784;9.364;2023-06-14T15:01:10;8.87;;;6.93;;
173;SDS011;75;48.784;9.364;2023-06-14T15:03:36;9.63;;;7.00;;
173;SDS011;75;48.784;9.364;2023-06-14T15:06:02;10.30;;;6.80;;
173;SDS011;75;48.784;9.364;2023-06-14T15:08:28;9.13;;;6.97;;
173;SDS011;75;48.784;9.364;2023-06-14T15:10:54;9.20;;;6.60;;
173;SDS011;75;48.784;9.364;2023-06-14T15:13:20;13.63;;;7.20;;
173;SDS011;75;48.784;9.364;2023-06-14T15:15:48;9.80;;;7.33;;
173;SDS011;75;48.784;9.364;2023-06-14T15:18:13;9.30;;;7.03;;
173;SDS011;75;48.784;9.364;2023-06-14T15:20:40;10.90;;;7.00;;
173;SDS011;75;48.784;9.364;2023-06-14T15:23:07;9.93;;;6.60;;
173;SDS011;75;48.784;9.364;2023-06-14T15:25:33;11.40;;;8.00;;
173;SDS011;75;48.784;9.364;2023-06-14T15:27:59;13.57;;;8.20;;
173;SDS011;75;48.784;9.364;2023-06-14T15:30:27;11.53;;;7.80;;
173;SDS011;75;48.784;9.364;2023-06-14T15:32:52;11.13;;;7.40;;
173;SDS011;75;48.784;9.364;2023-06-14T15:35:18;15.30;;;7.30;;
173;SDS011;75;48.784;9.364;2023-06-14T15:37:44;12.83;;;7.40;;
173;SDS011;75;48.784;9.364;2023-06-14T15:40:10;15.10;;;7.10;;
173;SDS011;75;48.784;9.364;2023-06-14T15:42:37;12.03;;;8.20;;
173;SDS011;75;48.784;9.364;2023-06-14T15:45:03;9.90;;;7.03;;
173;SDS011;75;48.784;9.364;2023-06-14T15:47:29;10.50;;;6.60;;
173;SDS011;75;48.784;9.364;2023-06-14T15:49:54;11.23;;;7.10;;
173;SDS011;75;48.784;9.364;2023-06-14T15:52:20;10.87;;;7.30;;
173;SDS011;75;48.784;9.364;2023-06-14T15:54:46;10.47;;;6.93;;